sensor_id;sensor_type;location;lat;lon;timestamp;P1;durP1;ratioP1;P2;durP2;ratioP2
75377;SDS011;63959;51.960;5.886;2022-10-15T00:02:33;9.90;;;4.68;;
75377;SDS011;63959;51.960;5.886;2022-10-15T00:05:04;14.00;;;7.43;;
75377;SDS011;63959;51.960;5.886;2022-10-15T00:07:33;10.65;;;5.63;;
75377;SDS011;63959;51.960;5.886;2022-10-15T00:10:06;9.43;;;5.65;;
75377;SDS011;63959;51.960;5.886;2022-10-15T00:12:35;9.88;;;5.65;;
75377;SDS011;63959;51.960;5.886;2022-10-15T00:15:04;11.20;;;6.35;;
75377;SDS011;63959;51.960;5.886;2022-10-15T00:17:35;9.30;;;5.18;;
75377;SDS011;63959;51.960;5.886;2022-10-15T00:20:08;8.98;;;5.53;;
75377;SDS011;63959;51.960;5.886;2022-10-15T00:22:37;11.00;;;5.45;;
75377;SDS011;63959;51.960;5.886;2022-10-15T00:25:07;9.30;;;5.18;;
75377;SDS011;63959;51.960;5.886;2022-10-15T00:27:36;8.30;;;5.00;;
75377;SDS011;63959;51.960;5.886;2022-10-15T00:30:05;14.48;;;6.50;;
75377;SDS011;63959;51.960;5.886;2022-10-15T00:32:37;10.18;;;5.90;;
75377;SDS011;63959;51.960;5.886;2022-10-15T00:35:06;10.25;;;5.97;;
75377;SDS011;63959;51.960;5.886;2022-10-15T00:37:37;11.10;;;6.10;;
75377;SDS011;63959;51.960;5.886;2022-10-15T00:40:06;12.15;;;7.25;;
75377;SDS011;63959;51.960;5.886;2022-10-15T00:42:35;11.05;;;5.22;;
75377;SDS011;63959;51.960;5.886;2022-10-15T00:45:14;8.65;;;5.35;;
75377;SDS011;63959;51.960;5.886;2022-10-15T00:47:46;9.68;;;5.45;;
75377;SDS011;63959;51.960;5.886;2022-10-15T00:50:17;8.65;;;5.13;;
75377;SDS011;63959;51.960;5.886;2022-10-15T00:52:50;12.68;;;5.13;;
75377;SDS011;63959;51.960;5.886;2022-10-15T00:55:24;10.40;;;5.47;;
75377;SDS011;63959;51.960;5.886;2022-10-15T00:57:55;10.77;;;5.50;;
75377;SDS011;63959;51.960;5.886;2022-10-15T01:00:26;12.50;;;6.72;;
75377;SDS011;63959;51.960;5.886;2022-10-15T01:02:58;9.45;;;6.07;;
75377;SDS011;63959;51.960;5.886;2022-10-15T01:05:27;11.77;;;6.78;;
75377;SDS011;63959;51.960;5.886;2022-10-15T01:07:59;12.27;;;6.47;;
75377;SDS011;63959;51.960;5.886;2022-10-15T01:10:29;11.93;;;5.95;;
75377;SDS011;63959;51.960;5.886;2022-10-15T01:13:05;15.15;;;8.60;;
75377;SDS011;63959;51.960;5.886;2022-10-15T01:15:36;11.05;;;5.85;;
75377;SDS011;63959;51.960;5.886;2022-10-15T01:18:11;13.15;;;6.32;;
75377;SDS011;63959;51.960;5.886;2022-10-15T01:20:53;11.55;;;7.03;;
75377;SDS011;63959;51.960;5.886;2022-10-15T01:23:33;11.70;;;6.60;;
75377;SDS011;63959;51.960;5.886;2022-10-15T01:26:11;11.63;;;6.65;;
75377;SDS011;63959;51.960;5.886;2022-10-15T01:28:50;12.95;;;7.88;;
75377;SDS011;63959;51.960;5.886;2022-10-15T01:31:27;17.05;;;8.82;;
75377;SDS011;63959;51.960;5.886;2022-10-15T01:33:58;15.25;;;8.80;;
75377;SDS011;63959;51.960;5.886;2022-10-15T01:36:30;13.80;;;7.68;;
75377;SDS011;63959;51.960;5.886;2022-10-15T01:39:02;13.52;;;8.05;;
75377;SDS011;63959;51.960;5.886;2022-10-15T01:41:36;14.95;;;8.93;;
75377;SDS011;63959;51.960;5.886;2022-10-15T01:44:08;16.58;;;9.30;;
75377;SDS011;63959;51.960;5.886;2022-10-15T01:46:49;13.48;;;7.93;;
75377;SDS011;63959;51.960;5.886;2022-10-15T01:49:24;13.15;;;7.60;;
75377;SDS011;63959;51.960;5.886;2022-10-15T01:54:39;13.93;;;8.63;;
75377;SDS011;63959;51.960;5.886;2022-10-15T01:57:08;13.88;;;8.00;;
75377;SDS011;63959;51.960;5.886;2022-10-15T01:59:41;13.70;;;7.55;;
75377;SDS011;63959;51.960;5.886;2022-10-15T02:02:13;12.05;;;7.47;;
75377;SDS011;63959;51.960;5.886;2022-10-15T02:04:43;11.55;;;6.55;;
75377;SDS011;63959;51.960;5.886;2022-10-15T02:07:16;12.15;;;7.28;;
75377;SDS011;63959;51.960;5.886;2022-10-15T02:09:48;11.25;;;6.22;;
75377;SDS011;63959;51.960;5.886;2022-10-15T02:12:24;12.32;;;7.18;;
75377;SDS011;63959;51.960;5.886;2022-10-15T02:14:58;10.07;;;6.25;;
75377;SDS011;63959;51.960;5.886;2022-10-15T02:17:33;11.48;;;6.90;;
75377;SDS011;63959;51.960;5.886;2022-10-15T02:20:05;13.27;;;7.70;;
75377;SDS011;63959;51.960;5.886;2022-10-15T02:22:38;12.75;;;7.10;;
75377;SDS011;63959;51.960;5.886;2022-10-15T02:25:09;11.40;;;7.15;;
75377;SDS011;63959;51.960;5.886;2022-10-15T02:27:40;12.63;;;8.07;;
75377;SDS011;63959;51.960;5.886;2022-10-15T02:30:10;14.55;;;8.45;;
75377;SDS011;63959;51.960;5.886;2022-10-15T02:32:44;13.57;;;7.10;;
75377;SDS011;63959;51.960;5.886;2022-10-15T02:35:13;10.70;;;6.47;;
75377;SDS011;63959;51.960;5.886;2022-10-15T02:37:43;12.48;;;7.70;;
75377;SDS011;63959;51.960;5.886;2022-10-15T02:40:17;15.00;;;8.65;;
75377;SDS011;63959;51.960;5.886;2022-10-15T02:42:47;14.13;;;7.20;;
75377;SDS011;63959;51.960;5.886;2022-10-15T02:45:16;11.68;;;5.70;;
75377;SDS011;63959;51.960;5.886;2022-10-15T02:47:48;12.57;;;7.18;;
75377;SDS011;63959;51.960;5.886;2022-10-15T02:50:17;12.43;;;6.78;;
75377;SDS011;63959;51.960;5.886;2022-10-15T02:52:46;9.50;;;5.70;;
75377;SDS011;63959;51.960;5.886;2022-10-15T02:55:16;12.30;;;7.32;;
75377;SDS011;63959;51.960;5.886;2022-10-15T02:57:45;15.48;;;8.38;;
75377;SDS011;63959;51.960;5.886;2022-10-15T03:00:15;13.40;;;6.97;;
75377;SDS011;63959;51.960;5.886;2022-10-15T03:02:50;11.85;;;6.93;;
75377;SDS011;63959;51.960;5.886;2022-10-15T03:05:19;17.10;;;8.30;;
75377;SDS011;63959;51.960;5.886;2022-10-15T03:07:48;15.40;;;8.05;;
75377;SDS011;63959;51.960;5.886;2022-10-15T03:10:17;16.67;;;9.60;;
75377;SDS011;63959;51.960;5.886;2022-10-15T03:12:46;15.55;;;9.55;;
75377;SDS011;63959;51.960;5.886;2022-10-15T03:15:15;15.90;;;8.60;;
75377;SDS011;63959;51.960;5.886;2022-10-15T03:17:45;13.20;;;7.97;;
75377;SDS011;63959;51.960;5.886;2022-10-15T03:20:19;21.23;;;9.18;;
75377;SDS011;63959;51.960;5.886;2022-10-15T03:22:48;19.17;;;9.63;;
75377;SDS011;63959;51.960;5.886;2022-10-15T03:25:17;11.88;;;7.13;;
75377;SDS011;63959;51.960;5.886;2022-10-15T03:27:54;11.85;;;6.93;;
75377;SDS011;63959;51.960;5.886;2022-10-15T03:30:31;11.32;;;6.68;;
75377;SDS011;63959;51.960;5.886;2022-10-15T03:33:00;12.75;;;7.32;;
75377;SDS011;63959;51.960;5.886;2022-10-15T03:35:32;10.82;;;6.38;;
75377;SDS011;63959;51.960;5.886;2022-10-15T03:38:03;10.45;;;6.03;;
75377;SDS011;63959;51.960;5.886;2022-10-15T03:40:32;17.58;;;9.02;;
75377;SDS011;63959;51.960;5.886;2022-10-15T03:43:14;17.70;;;9.43;;
75377;SDS011;63959;51.960;5.886;2022-10-15T03:45:43;12.07;;;7.72;;
75377;SDS011;63959;51.960;5.886;2022-10-15T03:48:19;13.65;;;7.13;;
75377;SDS011;63959;51.960;5.886;2022-10-15T03:50:51;15.95;;;8.20;;
75377;SDS011;63959;51.960;5.886;2022-10-15T03:53:19;15.73;;;8.70;;
75377;SDS011;63959;51.960;5.886;2022-10-15T03:55:49;16.75;;;10.25;;
75377;SDS011;63959;51.960;5.886;2022-10-15T03:58:18;15.82;;;8.98;;
75377;SDS011;63959;51.960;5.886;2022-10-15T04:00:53;20.67;;;10.65;;
75377;SDS011;63959;51.960;5.886;2022-10-15T04:03:22;14.27;;;8.20;;
75377;SDS011;63959;51.960;5.886;2022-10-15T04:05:54;15.10;;;8.63;;
75377;SDS011;63959;51.960;5.886;2022-10-15T04:08:25;17.23;;;9.80;;
75377;SDS011;63959;51.960;5.886;2022-10-15T04:10:54;16.13;;;9.02;;
75377;SDS011;63959;51.960;5.886;2022-10-15T04:13:24;16.60;;;8.98;;
75377;SDS011;63959;51.960;5.886;2022-10-15T04:15:54;16.05;;;8.45;;
75377;SDS011;63959;51.960;5.886;2022-10-15T04:18:22;14.55;;;7.82;;
75377;SDS011;63959;51.960;5.886;2022-10-15T04:21:00;13.02;;;6.47;;
75377;SDS011;63959;51.960;5.886;2022-10-15T04:23:32;16.40;;;9.48;;
75377;SDS011;63959;51.960;5.886;2022-10-15T04:26:22;14.38;;;8.48;;
75377;SDS011;63959;51.960;5.886;2022-10-15T04:28:51;17.17;;;9.05;;
75377;SDS011;63959;51.960;5.886;2022-10-15T04:31:22;16.65;;;8.48;;
75377;SDS011;63959;51.960;5.886;2022-10-15T04:33:51;21.35;;;11.20;;
75377;SDS011;63959;51.960;5.886;2022-10-15T04:36:23;18.80;;;10.85;;
75377;SDS011;63959;51.960;5.886;2022-10-15T04:38:57;19.58;;;10.80;;
75377;SDS011;63959;51.960;5.886;2022-10-15T04:41:38;15.43;;;7.82;;
75377;SDS011;63959;51.960;5.886;2022-10-15T04:44:27;19.50;;;10.45;;
75377;SDS011;63959;51.960;5.886;2022-10-15T04:46:57;22.10;;;11.52;;
75377;SDS011;63959;51.960;5.886;2022-10-15T04:49:40;17.55;;;8.98;;
75377;SDS011;63959;51.960;5.886;2022-10-15T04:52:28;18.10;;;9.68;;
75377;SDS011;63959;51.960;5.886;2022-10-15T04:55:04;17.02;;;9.52;;
75377;SDS011;63959;51.960;5.886;2022-10-15T04:57:35;15.20;;;8.30;;
75377;SDS011;63959;51.960;5.886;2022-10-15T05:00:05;17.77;;;10.00;;
75377;SDS011;63959;51.960;5.886;2022-10-15T05:02:53;28.65;;;14.93;;
75377;SDS011;63959;51.960;5.886;2022-10-15T05:05:31;18.05;;;10.43;;
75377;SDS011;63959;51.960;5.886;2022-10-15T05:08:05;27.88;;;15.40;;
75377;SDS011;63959;51.960;5.886;2022-10-15T05:10:54;27.60;;;12.93;;
75377;SDS011;63959;51.960;5.886;2022-10-15T05:13:23;26.80;;;15.10;;
75377;SDS011;63959;51.960;5.886;2022-10-15T05:15:52;29.27;;;14.20;;
75377;SDS011;63959;51.960;5.886;2022-10-15T05:18:22;33.00;;;17.23;;
75377;SDS011;63959;51.960;5.886;2022-10-15T05:20:51;31.33;;;16.70;;
75377;SDS011;63959;51.960;5.886;2022-10-15T05:23:24;30.40;;;16.15;;
75377;SDS011;63959;51.960;5.886;2022-10-15T05:26:06;32.15;;;14.63;;
75377;SDS011;63959;51.960;5.886;2022-10-15T05:28:35;24.88;;;14.02;;
75377;SDS011;63959;51.960;5.886;2022-10-15T05:31:05;28.38;;;13.68;;
75377;SDS011;63959;51.960;5.886;2022-10-15T05:33:34;24.38;;;13.30;;
75377;SDS011;63959;51.960;5.886;2022-10-15T05:36:07;29.20;;;15.25;;
75377;SDS011;63959;51.960;5.886;2022-10-15T05:38:38;35.03;;;15.70;;
75377;SDS011;63959;51.960;5.886;2022-10-15T05:41:07;24.63;;;13.77;;
75377;SDS011;63959;51.960;5.886;2022-10-15T05:43:36;29.13;;;14.65;;
75377;SDS011;63959;51.960;5.886;2022-10-15T05:46:08;25.25;;;13.90;;
75377;SDS011;63959;51.960;5.886;2022-10-15T05:48:37;25.63;;;13.13;;
75377;SDS011;63959;51.960;5.886;2022-10-15T05:51:07;24.63;;;14.07;;
75377;SDS011;63959;51.960;5.886;2022-10-15T05:53:40;25.33;;;13.18;;
75377;SDS011;63959;51.960;5.886;2022-10-15T05:56:11;30.58;;;15.32;;
75377;SDS011;63959;51.960;5.886;2022-10-15T05:58:39;30.50;;;16.02;;
75377;SDS011;63959;51.960;5.886;2022-10-15T06:01:09;29.10;;;14.82;;
75377;SDS011;63959;51.960;5.886;2022-10-15T06:03:41;28.52;;;15.60;;
75377;SDS011;63959;51.960;5.886;2022-10-15T06:06:13;32.17;;;16.83;;
75377;SDS011;63959;51.960;5.886;2022-10-15T06:08:45;30.30;;;14.20;;
75377;SDS011;63959;51.960;5.886;2022-10-15T06:11:14;40.13;;;16.83;;
75377;SDS011;63959;51.960;5.886;2022-10-15T06:13:45;36.58;;;16.70;;
75377;SDS011;63959;51.960;5.886;2022-10-15T06:16:15;38.33;;;17.23;;
75377;SDS011;63959;51.960;5.886;2022-10-15T06:18:44;62.70;;;20.20;;
75377;SDS011;63959;51.960;5.886;2022-10-15T06:21:13;40.95;;;17.75;;
75377;SDS011;63959;51.960;5.886;2022-10-15T06:30:00;36.10;;;14.60;;
75377;SDS011;63959;51.960;5.886;2022-10-15T08:49:15;22.02;;;11.55;;
75377;SDS011;63959;51.960;5.886;2022-10-15T08:54:46;22.98;;;11.07;;
75377;SDS011;63959;51.960;5.886;2022-10-15T08:57:28;23.80;;;11.85;;
75377;SDS011;63959;51.960;5.886;2022-10-15T09:08:21;20.63;;;11.13;;
75377;SDS011;63959;51.960;5.886;2022-10-15T09:11:04;25.25;;;12.27;;
75377;SDS011;63959;51.960;5.886;2022-10-15T09:16:23;22.85;;;10.85;;
75377;SDS011;63959;51.960;5.886;2022-10-15T09:21:31;19.63;;;10.52;;
75377;SDS011;63959;51.960;5.886;2022-10-15T09:29:30;16.77;;;9.43;;
75377;SDS011;63959;51.960;5.886;2022-10-15T09:57:17;16.52;;;8.60;;
75377;SDS011;63959;51.960;5.886;2022-10-15T09:59:54;14.43;;;7.63;;
75377;SDS011;63959;51.960;5.886;2022-10-15T10:02:33;11.93;;;7.00;;
75377;SDS011;63959;51.960;5.886;2022-10-15T10:05:18;10.15;;;5.80;;
75377;SDS011;63959;51.960;5.886;2022-10-15T10:07:50;12.00;;;6.00;;
75377;SDS011;63959;51.960;5.886;2022-10-15T10:10:36;15.13;;;7.43;;
75377;SDS011;63959;51.960;5.886;2022-10-15T10:13:25;13.38;;;6.63;;
75377;SDS011;63959;51.960;5.886;2022-10-15T10:16:04;12.65;;;6.72;;
75377;SDS011;63959;51.960;5.886;2022-10-15T10:19:11;14.63;;;7.47;;
75377;SDS011;63959;51.960;5.886;2022-10-15T10:38:22;15.27;;;7.40;;
75377;SDS011;63959;51.960;5.886;2022-10-15T13:54:23;7.97;;;4.43;;
75377;SDS011;63959;51.960;5.886;2022-10-15T13:57:20;7.80;;;4.55;;
75377;SDS011;63959;51.960;5.886;2022-10-15T14:00:17;9.00;;;4.85;;
75377;SDS011;63959;51.960;5.886;2022-10-15T14:06:39;6.97;;;4.20;;
75377;SDS011;63959;51.960;5.886;2022-10-15T14:09:17;12.95;;;5.60;;
75377;SDS011;63959;51.960;5.886;2022-10-15T14:12:18;9.88;;;4.55;;
75377;SDS011;63959;51.960;5.886;2022-10-15T15:38:29;4.90;;;2.40;;
75377;SDS011;63959;51.960;5.886;2022-10-15T15:40:59;4.95;;;2.22;;
75377;SDS011;63959;51.960;5.886;2022-10-15T15:43:29;5.60;;;2.00;;
75377;SDS011;63959;51.960;5.886;2022-10-15T15:46:01;5.40;;;1.95;;
75377;SDS011;63959;51.960;5.886;2022-10-15T15:51:17;4.32;;;1.80;;
75377;SDS011;63959;51.960;5.886;2022-10-15T15:53:51;4.90;;;1.98;;
75377;SDS011;63959;51.960;5.886;2022-10-15T15:56:22;5.20;;;1.90;;
75377;SDS011;63959;51.960;5.886;2022-10-15T15:58:51;4.68;;;1.92;;
75377;SDS011;63959;51.960;5.886;2022-10-15T16:01:21;4.85;;;2.13;;
75377;SDS011;63959;51.960;5.886;2022-10-15T16:03:52;5.80;;;2.20;;
75377;SDS011;63959;51.960;5.886;2022-10-15T16:06:23;5.25;;;2.17;;
75377;SDS011;63959;51.960;5.886;2022-10-15T16:08:56;5.20;;;2.40;;
75377;SDS011;63959;51.960;5.886;2022-10-15T16:11:27;5.47;;;2.30;;
75377;SDS011;63959;51.960;5.886;2022-10-15T16:13:58;5.03;;;2.08;;
75377;SDS011;63959;51.960;5.886;2022-10-15T16:16:27;5.57;;;2.15;;
75377;SDS011;63959;51.960;5.886;2022-10-15T16:18:56;6.15;;;2.20;;
75377;SDS011;63959;51.960;5.886;2022-10-15T16:21:27;5.38;;;2.03;;
75377;SDS011;63959;51.960;5.886;2022-10-15T16:24:01;5.13;;;1.90;;
75377;SDS011;63959;51.960;5.886;2022-10-15T16:26:30;5.03;;;1.23;;
75377;SDS011;63959;51.960;5.886;2022-10-15T16:28:59;4.85;;;1.60;;
75377;SDS011;63959;51.960;5.886;2022-10-15T16:31:28;3.55;;;1.60;;
75377;SDS011;63959;51.960;5.886;2022-10-15T16:34:01;5.53;;;1.70;;
75377;SDS011;63959;51.960;5.886;2022-10-15T16:36:30;5.40;;;1.77;;
75377;SDS011;63959;51.960;5.886;2022-10-15T16:39:03;4.88;;;1.42;;
75377;SDS011;63959;51.960;5.886;2022-10-15T16:41:32;5.43;;;1.42;;
75377;SDS011;63959;51.960;5.886;2022-10-15T16:44:00;4.80;;;1.45;;
75377;SDS011;63959;51.960;5.886;2022-10-15T16:46:29;3.50;;;1.40;;
75377;SDS011;63959;51.960;5.886;2022-10-15T16:48:58;4.72;;;1.30;;
75377;SDS011;63959;51.960;5.886;2022-10-15T16:51:27;5.22;;;1.42;;
75377;SDS011;63959;51.960;5.886;2022-10-15T16:53:56;4.95;;;1.55;;
75377;SDS011;63959;51.960;5.886;2022-10-15T16:56:29;5.78;;;1.85;;
75377;SDS011;63959;51.960;5.886;2022-10-15T16:58:59;4.78;;;1.45;;
75377;SDS011;63959;51.960;5.886;2022-10-15T17:01:28;7.07;;;1.88;;
75377;SDS011;63959;51.960;5.886;2022-10-15T17:03:57;5.18;;;1.65;;
75377;SDS011;63959;51.960;5.886;2022-10-15T17:06:27;5.30;;;1.40;;
75377;SDS011;63959;51.960;5.886;2022-10-15T17:08:56;5.05;;;1.58;;
75377;SDS011;63959;51.960;5.886;2022-10-15T17:11:28;4.90;;;1.50;;
75377;SDS011;63959;51.960;5.886;2022-10-15T17:14:00;5.70;;;1.70;;
75377;SDS011;63959;51.960;5.886;2022-10-15T17:16:32;5.18;;;1.63;;
75377;SDS011;63959;51.960;5.886;2022-10-15T17:19:01;4.50;;;1.30;;
75377;SDS011;63959;51.960;5.886;2022-10-15T17:21:30;5.43;;;1.65;;
75377;SDS011;63959;51.960;5.886;2022-10-15T17:24:01;6.03;;;1.90;;
75377;SDS011;63959;51.960;5.886;2022-10-15T17:26:34;7.15;;;1.50;;
75377;SDS011;63959;51.960;5.886;2022-10-15T17:29:05;7.28;;;1.80;;
75377;SDS011;63959;51.960;5.886;2022-10-15T17:31:34;4.57;;;1.73;;
75377;SDS011;63959;51.960;5.886;2022-10-15T17:34:04;5.25;;;1.92;;
75377;SDS011;63959;51.960;5.886;2022-10-15T17:36:34;5.72;;;1.85;;
75377;SDS011;63959;51.960;5.886;2022-10-15T17:39:06;5.50;;;1.98;;
75377;SDS011;63959;51.960;5.886;2022-10-15T17:41:38;5.63;;;2.05;;
75377;SDS011;63959;51.960;5.886;2022-10-15T17:44:07;6.85;;;2.42;;
75377;SDS011;63959;51.960;5.886;2022-10-15T17:46:36;4.50;;;2.10;;
75377;SDS011;63959;51.960;5.886;2022-10-15T17:49:05;6.13;;;2.53;;
75377;SDS011;63959;51.960;5.886;2022-10-15T17:51:38;4.93;;;2.10;;
75377;SDS011;63959;51.960;5.886;2022-10-15T17:54:07;7.30;;;2.90;;
75377;SDS011;63959;51.960;5.886;2022-10-15T17:56:38;5.05;;;2.15;;
75377;SDS011;63959;51.960;5.886;2022-10-15T17:59:08;5.18;;;2.00;;
75377;SDS011;63959;51.960;5.886;2022-10-15T18:01:38;5.88;;;2.60;;
75377;SDS011;63959;51.960;5.886;2022-10-15T18:04:08;6.68;;;2.50;;
75377;SDS011;63959;51.960;5.886;2022-10-15T18:06:36;5.10;;;2.70;;
75377;SDS011;63959;51.960;5.886;2022-10-15T18:09:05;8.23;;;3.30;;
75377;SDS011;63959;51.960;5.886;2022-10-15T18:11:34;6.50;;;2.90;;
75377;SDS011;63959;51.960;5.886;2022-10-15T18:14:06;6.35;;;2.83;;
75377;SDS011;63959;51.960;5.886;2022-10-15T18:16:34;7.40;;;3.13;;
75377;SDS011;63959;51.960;5.886;2022-10-15T18:19:03;6.60;;;2.72;;
75377;SDS011;63959;51.960;5.886;2022-10-15T18:21:32;6.65;;;3.40;;
75377;SDS011;63959;51.960;5.886;2022-10-15T18:24:01;6.00;;;3.05;;
75377;SDS011;63959;51.960;5.886;2022-10-15T18:26:29;7.50;;;3.00;;
75377;SDS011;63959;51.960;5.886;2022-10-15T18:28:58;5.70;;;2.58;;
75377;SDS011;63959;51.960;5.886;2022-10-15T18:31:30;6.22;;;2.70;;
75377;SDS011;63959;51.960;5.886;2022-10-15T18:33:58;6.65;;;2.70;;
75377;SDS011;63959;51.960;5.886;2022-10-15T18:36:28;5.80;;;2.90;;
75377;SDS011;63959;51.960;5.886;2022-10-15T18:38:57;7.05;;;3.35;;
75377;SDS011;63959;51.960;5.886;2022-10-15T18:41:26;5.88;;;2.53;;
75377;SDS011;63959;51.960;5.886;2022-10-15T18:43:58;6.35;;;2.67;;
75377;SDS011;63959;51.960;5.886;2022-10-15T18:46:33;8.40;;;2.40;;
75377;SDS011;63959;51.960;5.886;2022-10-15T18:49:03;5.50;;;2.00;;
75377;SDS011;63959;51.960;5.886;2022-10-15T18:51:32;5.18;;;2.78;;
75377;SDS011;63959;51.960;5.886;2022-10-15T18:54:00;6.20;;;2.67;;
75377;SDS011;63959;51.960;5.886;2022-10-15T18:56:30;5.95;;;2.60;;
75377;SDS011;63959;51.960;5.886;2022-10-15T18:58:59;6.30;;;2.70;;
75377;SDS011;63959;51.960;5.886;2022-10-15T19:01:28;7.20;;;2.65;;
75377;SDS011;63959;51.960;5.886;2022-10-15T19:04:01;9.23;;;3.00;;
75377;SDS011;63959;51.960;5.886;2022-10-15T19:06:31;4.63;;;2.53;;
75377;SDS011;63959;51.960;5.886;2022-10-15T19:09:00;6.65;;;3.08;;
75377;SDS011;63959;51.960;5.886;2022-10-15T19:11:32;6.75;;;3.80;;
75377;SDS011;63959;51.960;5.886;2022-10-15T19:14:01;5.80;;;3.00;;
75377;SDS011;63959;51.960;5.886;2022-10-15T19:16:30;7.32;;;3.10;;
75377;SDS011;63959;51.960;5.886;2022-10-15T19:19:04;6.70;;;2.90;;
75377;SDS011;63959;51.960;5.886;2022-10-15T19:21:33;6.80;;;3.38;;
75377;SDS011;63959;51.960;5.886;2022-10-15T19:24:02;5.82;;;2.58;;
75377;SDS011;63959;51.960;5.886;2022-10-15T19:26:31;6.30;;;2.70;;
75377;SDS011;63959;51.960;5.886;2022-10-15T19:29:00;9.57;;;3.30;;
75377;SDS011;63959;51.960;5.886;2022-10-15T19:31:30;6.05;;;3.22;;
75377;SDS011;63959;51.960;5.886;2022-10-15T19:34:01;6.25;;;3.05;;
75377;SDS011;63959;51.960;5.886;2022-10-15T19:36:34;5.40;;;2.47;;
75377;SDS011;63959;51.960;5.886;2022-10-15T19:39:07;6.78;;;2.75;;
75377;SDS011;63959;51.960;5.886;2022-10-15T19:41:37;8.38;;;3.13;;
75377;SDS011;63959;51.960;5.886;2022-10-15T19:44:06;4.80;;;2.83;;
75377;SDS011;63959;51.960;5.886;2022-10-15T19:46:35;5.15;;;2.47;;
75377;SDS011;63959;51.960;5.886;2022-10-15T19:49:04;10.65;;;3.72;;
75377;SDS011;63959;51.960;5.886;2022-10-15T19:51:39;6.65;;;2.50;;
75377;SDS011;63959;51.960;5.886;2022-10-15T19:54:16;6.30;;;2.63;;
75377;SDS011;63959;51.960;5.886;2022-10-15T19:56:45;5.50;;;2.67;;
75377;SDS011;63959;51.960;5.886;2022-10-15T19:59:14;5.43;;;2.30;;
75377;SDS011;63959;51.960;5.886;2022-10-15T20:01:43;7.00;;;2.53;;
75377;SDS011;63959;51.960;5.886;2022-10-15T20:04:12;7.45;;;2.85;;
75377;SDS011;63959;51.960;5.886;2022-10-15T20:06:43;7.10;;;2.72;;
75377;SDS011;63959;51.960;5.886;2022-10-15T20:09:13;6.47;;;2.85;;
75377;SDS011;63959;51.960;5.886;2022-10-15T20:11:43;7.10;;;2.47;;
75377;SDS011;63959;51.960;5.886;2022-10-15T20:14:12;5.82;;;2.22;;
75377;SDS011;63959;51.960;5.886;2022-10-15T20:16:41;5.50;;;2.30;;
75377;SDS011;63959;51.960;5.886;2022-10-15T20:19:10;7.30;;;2.67;;
75377;SDS011;63959;51.960;5.886;2022-10-15T20:21:39;6.30;;;2.10;;
75377;SDS011;63959;51.960;5.886;2022-10-15T20:24:11;5.72;;;2.20;;
75377;SDS011;63959;51.960;5.886;2022-10-15T20:26:40;7.68;;;2.80;;
75377;SDS011;63959;51.960;5.886;2022-10-15T20:29:09;7.60;;;2.50;;
75377;SDS011;63959;51.960;5.886;2022-10-15T20:31:41;7.82;;;3.00;;
75377;SDS011;63959;51.960;5.886;2022-10-15T20:34:10;5.97;;;2.20;;
75377;SDS011;63959;51.960;5.886;2022-10-15T20:36:39;5.68;;;2.13;;
75377;SDS011;63959;51.960;5.886;2022-10-15T20:39:09;6.38;;;2.38;;
75377;SDS011;63959;51.960;5.886;2022-10-15T20:41:40;4.90;;;2.08;;
75377;SDS011;63959;51.960;5.886;2022-10-15T20:44:09;6.07;;;2.38;;
75377;SDS011;63959;51.960;5.886;2022-10-15T20:46:39;7.22;;;2.20;;
75377;SDS011;63959;51.960;5.886;2022-10-15T20:49:10;6.72;;;2.75;;
75377;SDS011;63959;51.960;5.886;2022-10-15T20:51:40;6.45;;;2.35;;
75377;SDS011;63959;51.960;5.886;2022-10-15T20:54:10;5.53;;;2.10;;
75377;SDS011;63959;51.960;5.886;2022-10-15T20:56:42;7.80;;;2.15;;
75377;SDS011;63959;51.960;5.886;2022-10-15T20:59:11;8.68;;;2.38;;
75377;SDS011;63959;51.960;5.886;2022-10-15T21:01:40;6.25;;;2.10;;
75377;SDS011;63959;51.960;5.886;2022-10-15T21:04:08;4.60;;;1.95;;
75377;SDS011;63959;51.960;5.886;2022-10-15T21:06:37;8.90;;;3.65;;
75377;SDS011;63959;51.960;5.886;2022-10-15T21:09:06;5.93;;;2.00;;
75377;SDS011;63959;51.960;5.886;2022-10-15T21:11:38;5.70;;;2.00;;
75377;SDS011;63959;51.960;5.886;2022-10-15T21:14:10;6.35;;;2.60;;
75377;SDS011;63959;51.960;5.886;2022-10-15T21:16:38;6.15;;;2.40;;
75377;SDS011;63959;51.960;5.886;2022-10-15T21:19:07;7.57;;;2.47;;
75377;SDS011;63959;51.960;5.886;2022-10-15T21:21:36;7.07;;;2.20;;
75377;SDS011;63959;51.960;5.886;2022-10-15T21:24:05;5.68;;;2.15;;
75377;SDS011;63959;51.960;5.886;2022-10-15T21:26:33;4.85;;;2.20;;
75377;SDS011;63959;51.960;5.886;2022-10-15T21:29:02;7.55;;;2.40;;
75377;SDS011;63959;51.960;5.886;2022-10-15T21:31:41;7.03;;;2.33;;
75377;SDS011;63959;51.960;5.886;2022-10-15T21:34:10;6.75;;;2.42;;
75377;SDS011;63959;51.960;5.886;2022-10-15T21:36:38;4.45;;;2.03;;
75377;SDS011;63959;51.960;5.886;2022-10-15T21:39:08;7.63;;;2.35;;
75377;SDS011;63959;51.960;5.886;2022-10-15T21:41:37;8.60;;;2.95;;
75377;SDS011;63959;51.960;5.886;2022-10-15T21:44:06;7.07;;;2.67;;
75377;SDS011;63959;51.960;5.886;2022-10-15T21:46:35;8.18;;;2.40;;
75377;SDS011;63959;51.960;5.886;2022-10-15T21:49:06;5.88;;;2.20;;
75377;SDS011;63959;51.960;5.886;2022-10-15T21:51:36;7.93;;;2.45;;
75377;SDS011;63959;51.960;5.886;2022-10-15T21:54:05;7.03;;;2.63;;
75377;SDS011;63959;51.960;5.886;2022-10-15T21:56:34;6.25;;;2.60;;
75377;SDS011;63959;51.960;5.886;2022-10-15T21:59:03;6.63;;;2.45;;
75377;SDS011;63959;51.960;5.886;2022-10-15T22:01:32;6.60;;;2.38;;
75377;SDS011;63959;51.960;5.886;2022-10-15T22:04:03;5.68;;;2.10;;
75377;SDS011;63959;51.960;5.886;2022-10-15T22:06:35;7.93;;;2.70;;
75377;SDS011;63959;51.960;5.886;2022-10-15T22:09:04;6.65;;;2.58;;
75377;SDS011;63959;51.960;5.886;2022-10-15T22:11:34;8.23;;;2.45;;
75377;SDS011;63959;51.960;5.886;2022-10-15T22:14:04;6.93;;;2.65;;
75377;SDS011;63959;51.960;5.886;2022-10-15T22:16:33;9.50;;;2.53;;
75377;SDS011;63959;51.960;5.886;2022-10-15T22:19:03;6.18;;;2.20;;
75377;SDS011;63959;51.960;5.886;2022-10-15T22:21:36;5.00;;;1.90;;
75377;SDS011;63959;51.960;5.886;2022-10-15T22:24:06;6.05;;;2.10;;
75377;SDS011;63959;51.960;5.886;2022-10-15T22:26:37;6.63;;;2.28;;
75377;SDS011;63959;51.960;5.886;2022-10-15T22:29:06;4.50;;;1.90;;
75377;SDS011;63959;51.960;5.886;2022-10-15T22:31:36;5.90;;;1.90;;
75377;SDS011;63959;51.960;5.886;2022-10-15T22:34:05;5.22;;;1.75;;
75377;SDS011;63959;51.960;5.886;2022-10-15T22:36:36;5.15;;;1.83;;
75377;SDS011;63959;51.960;5.886;2022-10-15T22:39:05;6.10;;;2.08;;
75377;SDS011;63959;51.960;5.886;2022-10-15T22:41:35;5.78;;;1.75;;
75377;SDS011;63959;51.960;5.886;2022-10-15T22:44:04;6.70;;;1.85;;
75377;SDS011;63959;51.960;5.886;2022-10-15T22:46:34;6.82;;;2.20;;
75377;SDS011;63959;51.960;5.886;2022-10-15T22:49:03;4.95;;;1.95;;
75377;SDS011;63959;51.960;5.886;2022-10-15T22:51:33;4.15;;;1.80;;
75377;SDS011;63959;51.960;5.886;2022-10-15T22:54:04;7.63;;;2.05;;
75377;SDS011;63959;51.960;5.886;2022-10-15T22:56:33;6.90;;;2.17;;
75377;SDS011;63959;51.960;5.886;2022-10-15T22:59:02;7.93;;;2.00;;
75377;SDS011;63959;51.960;5.886;2022-10-15T23:01:32;6.07;;;2.20;;
75377;SDS011;63959;51.960;5.886;2022-10-15T23:04:02;5.43;;;1.88;;
75377;SDS011;63959;51.960;5.886;2022-10-15T23:06:32;6.15;;;2.20;;
75377;SDS011;63959;51.960;5.886;2022-10-15T23:09:04;5.90;;;2.20;;
75377;SDS011;63959;51.960;5.886;2022-10-15T23:11:34;6.43;;;2.28;;
75377;SDS011;63959;51.960;5.886;2022-10-15T23:14:03;6.75;;;2.20;;
75377;SDS011;63959;51.960;5.886;2022-10-15T23:16:33;7.53;;;1.90;;
75377;SDS011;63959;51.960;5.886;2022-10-15T23:19:09;5.57;;;2.42;;
75377;SDS011;63959;51.960;5.886;2022-10-15T23:21:40;4.70;;;1.90;;